sensor_id;sensor_type;location;lat;lon;timestamp;P1;durP1;ratioP1;P2;durP2;ratioP2
52564;SDS011;38460;53.106;7.004;2023-08-01T00:01:01;8.68;;;3.38;;
52564;SDS011;38460;53.106;7.004;2023-08-01T00:03:28;8.27;;;3.05;;
52564;SDS011;38460;53.106;7.004;2023-08-01T00:05:53;7.20;;;2.95;;
52564;SDS011;38460;53.106;7.004;2023-08-01T00:08:20;7.35;;;3.20;;
52564;SDS011;38460;53.106;7.004;2023-08-01T00:10:46;7.35;;;3.83;;
52564;SDS011;38460;53.106;7.004;2023-08-01T00:13:12;7.85;;;3.80;;
52564;SDS011;38460;53.106;7.004;2023-08-01T00:15:38;6.70;;;3.80;;
52564;SDS011;38460;53.106;7.004;2023-08-01T00:18:04;7.57;;;3.53;;
52564;SDS011;38460;53.106;7.004;2023-08-01T00:20:30;12.18;;;3.95;;
52564;SDS011;38460;53.106;7.004;2023-08-01T00:22:56;8.18;;;3.72;;
52564;SDS011;38460;53.106;7.004;2023-08-01T00:25:22;9.45;;;3.65;;
52564;SDS011;38460;53.106;7.004;2023-08-01T00:27:47;9.25;;;4.18;;
52564;SDS011;38460;53.106;7.004;2023-08-01T00:30:13;11.35;;;3.97;;
52564;SDS011;38460;53.106;7.004;2023-08-01T00:32:39;8.55;;;4.45;;
52564;SDS011;38460;53.106;7.004;2023-08-01T00:35:05;10.30;;;4.82;;
52564;SDS011;38460;53.106;7.004;2023-08-01T00:37:31;8.40;;;4.63;;
52564;SDS011;38460;53.106;7.004;2023-08-01T00:39:56;10.18;;;4.68;;
52564;SDS011;38460;53.106;7.004;2023-08-01T00:42:22;9.25;;;4.78;;
52564;SDS011;38460;53.106;7.004;2023-08-01T00:44:48;10.25;;;4.20;;
52564;SDS011;38460;53.106;7.004;2023-08-01T00:47:14;6.30;;;4.05;;
52564;SDS011;38460;53.106;7.004;2023-08-01T00:49:40;9.52;;;4.80;;
52564;SDS011;38460;53.106;7.004;2023-08-01T00:52:06;8.98;;;5.18;;
52564;SDS011;38460;53.106;7.004;2023-08-01T00:54:33;8.90;;;5.10;;
52564;SDS011;38460;53.106;7.004;2023-08-01T00:57:02;9.65;;;5.45;;
52564;SDS011;38460;53.106;7.004;2023-08-01T00:59:29;10.95;;;5.38;;
52564;SDS011;38460;53.106;7.004;2023-08-01T01:01:55;9.52;;;4.90;;
52564;SDS011;38460;53.106;7.004;2023-08-01T01:04:22;10.52;;;4.82;;
52564;SDS011;38460;53.106;7.004;2023-08-01T01:06:51;11.88;;;5.20;;
52564;SDS011;38460;53.106;7.004;2023-08-01T01:09:22;8.07;;;5.40;;
52564;SDS011;38460;53.106;7.004;2023-08-01T01:11:48;7.43;;;4.75;;
52564;SDS011;38460;53.106;7.004;2023-08-01T01:14:13;14.05;;;4.82;;
52564;SDS011;38460;53.106;7.004;2023-08-01T01:16:39;7.80;;;5.25;;
52564;SDS011;38460;53.106;7.004;2023-08-01T01:19:06;9.27;;;4.60;;
52564;SDS011;38460;53.106;7.004;2023-08-01T01:21:35;8.10;;;4.55;;
52564;SDS011;38460;53.106;7.004;2023-08-01T01:24:04;7.82;;;4.50;;
52564;SDS011;38460;53.106;7.004;2023-08-01T01:26:33;9.07;;;3.85;;
52564;SDS011;38460;53.106;7.004;2023-08-01T01:29:00;5.40;;;3.75;;
52564;SDS011;38460;53.106;7.004;2023-08-01T01:31:27;6.22;;;3.45;;
52564;SDS011;38460;53.106;7.004;2023-08-01T01:33:54;6.03;;;3.13;;
52564;SDS011;38460;53.106;7.004;2023-08-01T01:36:20;5.85;;;2.92;;
52564;SDS011;38460;53.106;7.004;2023-08-01T01:38:46;7.05;;;3.25;;
52564;SDS011;38460;53.106;7.004;2023-08-01T01:41:12;6.63;;;3.03;;
52564;SDS011;38460;53.106;7.004;2023-08-01T01:43:37;6.10;;;3.25;;
52564;SDS011;38460;53.106;7.004;2023-08-01T01:46:03;6.53;;;2.95;;
52564;SDS011;38460;53.106;7.004;2023-08-01T01:48:29;5.65;;;3.05;;
52564;SDS011;38460;53.106;7.004;2023-08-01T01:50:55;5.15;;;2.97;;
52564;SDS011;38460;53.106;7.004;2023-08-01T01:53:20;5.15;;;2.60;;
52564;SDS011;38460;53.106;7.004;2023-08-01T01:55:46;6.35;;;3.15;;
52564;SDS011;38460;53.106;7.004;2023-08-01T01:58:12;6.45;;;2.88;;
52564;SDS011;38460;53.106;7.004;2023-08-01T02:00:38;6.50;;;2.75;;
52564;SDS011;38460;53.106;7.004;2023-08-01T02:03:03;5.43;;;2.53;;
52564;SDS011;38460;53.106;7.004;2023-08-01T02:05:29;6.88;;;3.17;;
52564;SDS011;38460;53.106;7.004;2023-08-01T02:07:55;10.50;;;3.22;;
52564;SDS011;38460;53.106;7.004;2023-08-01T02:10:21;7.65;;;3.35;;
52564;SDS011;38460;53.106;7.004;2023-08-01T02:12:46;6.38;;;2.83;;
52564;SDS011;38460;53.106;7.004;2023-08-01T02:15:12;5.18;;;3.22;;
52564;SDS011;38460;53.106;7.004;2023-08-01T02:17:38;6.47;;;2.95;;
52564;SDS011;38460;53.106;7.004;2023-08-01T02:20:05;10.88;;;3.40;;
52564;SDS011;38460;53.106;7.004;2023-08-01T02:22:32;8.32;;;3.65;;
52564;SDS011;38460;53.106;7.004;2023-08-01T02:24:58;6.28;;;2.40;;
52564;SDS011;38460;53.106;7.004;2023-08-01T02:27:23;7.28;;;3.17;;
52564;SDS011;38460;53.106;7.004;2023-08-01T02:29:49;8.40;;;3.83;;
52564;SDS011;38460;53.106;7.004;2023-08-01T02:32:16;6.57;;;2.67;;
52564;SDS011;38460;53.106;7.004;2023-08-01T02:34:42;13.50;;;3.30;;
52564;SDS011;38460;53.106;7.004;2023-08-01T02:37:07;5.38;;;3.00;;
52564;SDS011;38460;53.106;7.004;2023-08-01T02:39:34;5.88;;;2.70;;
52564;SDS011;38460;53.106;7.004;2023-08-01T02:42:00;8.43;;;2.80;;
52564;SDS011;38460;53.106;7.004;2023-08-01T02:44:26;7.38;;;2.78;;
52564;SDS011;38460;53.106;7.004;2023-08-01T02:46:52;5.75;;;3.05;;
52564;SDS011;38460;53.106;7.004;2023-08-01T02:49:18;6.50;;;3.20;;
52564;SDS011;38460;53.106;7.004;2023-08-01T02:51:44;6.90;;;2.85;;
52564;SDS011;38460;53.106;7.004;2023-08-01T02:54:09;5.53;;;2.67;;
52564;SDS011;38460;53.106;7.004;2023-08-01T02:56:35;7.13;;;3.63;;
52564;SDS011;38460;53.106;7.004;2023-08-01T02:59:06;6.57;;;3.25;;
52564;SDS011;38460;53.106;7.004;2023-08-01T03:01:34;6.72;;;3.70;;
52564;SDS011;38460;53.106;7.004;2023-08-01T03:04:02;6.95;;;3.78;;
52564;SDS011;38460;53.106;7.004;2023-08-01T03:06:30;7.85;;;3.70;;
52564;SDS011;38460;53.106;7.004;2023-08-01T03:08:58;9.75;;;3.75;;
52564;SDS011;38460;53.106;7.004;2023-08-01T03:11:24;7.13;;;3.20;;
52564;SDS011;38460;53.106;7.004;2023-08-01T03:13:51;7.53;;;3.42;;
52564;SDS011;38460;53.106;7.004;2023-08-01T03:16:17;7.40;;;3.85;;
52564;SDS011;38460;53.106;7.004;2023-08-01T03:18:43;7.72;;;3.72;;
52564;SDS011;38460;53.106;7.004;2023-08-01T03:21:08;7.43;;;4.07;;
52564;SDS011;38460;53.106;7.004;2023-08-01T03:23:34;8.40;;;4.18;;
52564;SDS011;38460;53.106;7.004;2023-08-01T03:26:01;9.32;;;4.47;;
52564;SDS011;38460;53.106;7.004;2023-08-01T03:28:28;10.02;;;3.83;;
52564;SDS011;38460;53.106;7.004;2023-08-01T03:30:53;11.10;;;4.10;;
52564;SDS011;38460;53.106;7.004;2023-08-01T03:33:20;8.60;;;3.95;;
52564;SDS011;38460;53.106;7.004;2023-08-01T03:35:46;7.35;;;4.45;;
52564;SDS011;38460;53.106;7.004;2023-08-01T03:38:12;8.68;;;3.85;;
52564;SDS011;38460;53.106;7.004;2023-08-01T03:40:38;7.90;;;4.00;;
52564;SDS011;38460;53.106;7.004;2023-08-01T03:43:04;10.40;;;4.30;;
52564;SDS011;38460;53.106;7.004;2023-08-01T03:45:31;10.35;;;4.97;;
52564;SDS011;38460;53.106;7.004;2023-08-01T03:47:58;9.50;;;4.88;;
52564;SDS011;38460;53.106;7.004;2023-08-01T03:50:24;10.07;;;4.78;;
52564;SDS011;38460;53.106;7.004;2023-08-01T03:52:50;11.70;;;5.15;;
52564;SDS011;38460;53.106;7.004;2023-08-01T03:55:16;10.48;;;4.93;;
52564;SDS011;38460;53.106;7.004;2023-08-01T03:57:42;8.90;;;5.28;;
52564;SDS011;38460;53.106;7.004;2023-08-01T04:00:08;13.05;;;5.60;;
52564;SDS011;38460;53.106;7.004;2023-08-01T04:02:43;9.85;;;5.07;;
52564;SDS011;38460;53.106;7.004;2023-08-01T04:05:09;10.02;;;5.30;;
52564;SDS011;38460;53.106;7.004;2023-08-01T04:07:36;8.05;;;4.28;;
52564;SDS011;38460;53.106;7.004;2023-08-01T04:10:02;8.32;;;4.53;;
52564;SDS011;38460;53.106;7.004;2023-08-01T04:12:29;7.57;;;3.97;;
52564;SDS011;38460;53.106;7.004;2023-08-01T04:14:56;6.03;;;3.83;;
52564;SDS011;38460;53.106;7.004;2023-08-01T04:17:22;7.22;;;4.15;;
52564;SDS011;38460;53.106;7.004;2023-08-01T04:19:48;7.18;;;3.67;;
52564;SDS011;38460;53.106;7.004;2023-08-01T04:22:14;8.77;;;3.80;;
52564;SDS011;38460;53.106;7.004;2023-08-01T04:24:39;8.50;;;3.67;;
52564;SDS011;38460;53.106;7.004;2023-08-01T04:27:05;6.40;;;3.08;;
52564;SDS011;38460;53.106;7.004;2023-08-01T04:29:31;6.63;;;3.53;;
52564;SDS011;38460;53.106;7.004;2023-08-01T04:31:57;7.30;;;3.78;;
52564;SDS011;38460;53.106;7.004;2023-08-01T04:34:22;8.80;;;4.28;;
52564;SDS011;38460;53.106;7.004;2023-08-01T04:36:48;7.68;;;3.30;;
52564;SDS011;38460;53.106;7.004;2023-08-01T04:39:14;6.28;;;3.90;;
52564;SDS011;38460;53.106;7.004;2023-08-01T04:41:39;5.90;;;2.80;;
52564;SDS011;38460;53.106;7.004;2023-08-01T04:44:05;7.65;;;3.30;;
52564;SDS011;38460;53.106;7.004;2023-08-01T04:46:31;6.93;;;3.47;;
52564;SDS011;38460;53.106;7.004;2023-08-01T04:48:57;6.28;;;3.30;;
52564;SDS011;38460;53.106;7.004;2023-08-01T04:51:24;5.75;;;3.05;;
52564;SDS011;38460;53.106;7.004;2023-08-01T04:53:50;7.13;;;3.47;;
52564;SDS011;38460;53.106;7.004;2023-08-01T04:56:16;10.13;;;2.85;;
52564;SDS011;38460;53.106;7.004;2023-08-01T04:58:42;6.45;;;3.20;;
52564;SDS011;38460;53.106;7.004;2023-08-01T05:01:07;7.60;;;3.00;;
52564;SDS011;38460;53.106;7.004;2023-08-01T05:03:33;4.75;;;2.45;;
52564;SDS011;38460;53.106;7.004;2023-08-01T05:05:59;6.20;;;2.60;;
52564;SDS011;38460;53.106;7.004;2023-08-01T05:08:25;6.35;;;2.30;;
52564;SDS011;38460;53.106;7.004;2023-08-01T05:10:51;9.23;;;2.85;;
52564;SDS011;38460;53.106;7.004;2023-08-01T05:13:17;10.95;;;3.30;;
52564;SDS011;38460;53.106;7.004;2023-08-01T05:15:46;6.07;;;2.40;;
52564;SDS011;38460;53.106;7.004;2023-08-01T05:18:13;4.47;;;2.03;;
52564;SDS011;38460;53.106;7.004;2023-08-01T05:20:39;5.25;;;2.17;;
52564;SDS011;38460;53.106;7.004;2023-08-01T05:23:05;4.43;;;2.05;;
52564;SDS011;38460;53.106;7.004;2023-08-01T05:25:31;6.93;;;2.35;;
52564;SDS011;38460;53.106;7.004;2023-08-01T05:27:57;6.30;;;2.20;;
52564;SDS011;38460;53.106;7.004;2023-08-01T05:30:24;6.63;;;2.35;;
52564;SDS011;38460;53.106;7.004;2023-08-01T05:32:50;6.55;;;2.00;;
52564;SDS011;38460;53.106;7.004;2023-08-01T05:35:16;6.72;;;2.40;;
52564;SDS011;38460;53.106;7.004;2023-08-01T05:37:42;4.05;;;1.88;;
52564;SDS011;38460;53.106;7.004;2023-08-01T05:40:08;4.97;;;2.17;;
52564;SDS011;38460;53.106;7.004;2023-08-01T05:42:34;5.05;;;2.03;;
52564;SDS011;38460;53.106;7.004;2023-08-01T05:45:00;4.82;;;2.03;;
52564;SDS011;38460;53.106;7.004;2023-08-01T05:47:26;4.88;;;2.17;;
52564;SDS011;38460;53.106;7.004;2023-08-01T05:49:52;6.30;;;1.80;;
52564;SDS011;38460;53.106;7.004;2023-08-01T05:52:18;4.07;;;1.73;;
52564;SDS011;38460;53.106;7.004;2023-08-01T05:54:43;4.05;;;1.75;;
52564;SDS011;38460;53.106;7.004;2023-08-01T05:57:09;4.28;;;1.77;;
52564;SDS011;38460;53.106;7.004;2023-08-01T05:59:35;3.17;;;1.52;;
52564;SDS011;38460;53.106;7.004;2023-08-01T06:02:01;5.10;;;1.85;;
52564;SDS011;38460;53.106;7.004;2023-08-01T06:04:27;4.03;;;1.77;;
52564;SDS011;38460;53.106;7.004;2023-08-01T06:06:53;4.05;;;1.83;;
52564;SDS011;38460;53.106;7.004;2023-08-01T06:09:19;4.75;;;1.73;;
52564;SDS011;38460;53.106;7.004;2023-08-01T06:11:45;3.67;;;1.70;;
52564;SDS011;38460;53.106;7.004;2023-08-01T06:14:10;4.22;;;1.48;;
52564;SDS011;38460;53.106;7.004;2023-08-01T06:16:36;5.15;;;1.90;;
52564;SDS011;38460;53.106;7.004;2023-08-01T06:19:02;3.38;;;1.65;;
52564;SDS011;38460;53.106;7.004;2023-08-01T06:21:28;3.50;;;1.75;;
52564;SDS011;38460;53.106;7.004;2023-08-01T06:23:53;3.42;;;2.05;;
52564;SDS011;38460;53.106;7.004;2023-08-01T06:26:19;5.85;;;1.67;;
52564;SDS011;38460;53.106;7.004;2023-08-01T06:28:45;3.95;;;1.65;;
52564;SDS011;38460;53.106;7.004;2023-08-01T06:31:11;6.65;;;1.42;;
52564;SDS011;38460;53.106;7.004;2023-08-01T06:33:36;4.60;;;1.52;;
52564;SDS011;38460;53.106;7.004;2023-08-01T06:36:02;3.10;;;1.23;;
52564;SDS011;38460;53.106;7.004;2023-08-01T06:38:28;5.30;;;1.90;;
52564;SDS011;38460;53.106;7.004;2023-08-01T06:40:54;5.10;;;1.63;;
52564;SDS011;38460;53.106;7.004;2023-08-01T06:43:19;7.75;;;1.70;;
52564;SDS011;38460;53.106;7.004;2023-08-01T06:45:45;3.65;;;1.67;;
52564;SDS011;38460;53.106;7.004;2023-08-01T06:48:11;3.33;;;1.73;;
52564;SDS011;38460;53.106;7.004;2023-08-01T06:50:37;4.05;;;1.73;;
52564;SDS011;38460;53.106;7.004;2023-08-01T06:53:02;3.70;;;1.55;;
52564;SDS011;38460;53.106;7.004;2023-08-01T06:55:28;4.50;;;1.80;;
52564;SDS011;38460;53.106;7.004;2023-08-01T06:57:54;4.20;;;1.92;;
52564;SDS011;38460;53.106;7.004;2023-08-01T07:00:20;6.43;;;1.92;;
52564;SDS011;38460;53.106;7.004;2023-08-01T07:02:46;3.72;;;1.83;;
52564;SDS011;38460;53.106;7.004;2023-08-01T07:05:12;5.15;;;2.10;;
52564;SDS011;38460;53.106;7.004;2023-08-01T07:07:37;4.10;;;2.10;;
52564;SDS011;38460;53.106;7.004;2023-08-01T07:10:03;4.72;;;1.63;;
52564;SDS011;38460;53.106;7.004;2023-08-01T07:12:29;4.25;;;1.63;;
52564;SDS011;38460;53.106;7.004;2023-08-01T07:14:55;5.50;;;2.30;;
52564;SDS011;38460;53.106;7.004;2023-08-01T07:17:21;4.20;;;2.15;;
52564;SDS011;38460;53.106;7.004;2023-08-01T07:19:46;4.13;;;1.92;;
52564;SDS011;38460;53.106;7.004;2023-08-01T07:22:12;4.10;;;2.35;;
52564;SDS011;38460;53.106;7.004;2023-08-01T07:24:38;4.18;;;1.58;;
52564;SDS011;38460;53.106;7.004;2023-08-01T07:27:04;4.10;;;1.85;;
52564;SDS011;38460;53.106;7.004;2023-08-01T07:29:30;4.47;;;1.80;;
52564;SDS011;38460;53.106;7.004;2023-08-01T07:31:55;5.53;;;1.85;;
52564;SDS011;38460;53.106;7.004;2023-08-01T07:34:21;5.50;;;1.90;;
52564;SDS011;38460;53.106;7.004;2023-08-01T07:36:47;4.32;;;2.03;;
52564;SDS011;38460;53.106;7.004;2023-08-01T07:39:14;2.85;;;1.90;;
52564;SDS011;38460;53.106;7.004;2023-08-01T07:41:40;4.60;;;1.83;;
52564;SDS011;38460;53.106;7.004;2023-08-01T07:44:06;3.45;;;1.52;;
52564;SDS011;38460;53.106;7.004;2023-08-01T07:46:32;5.40;;;1.48;;
52564;SDS011;38460;53.106;7.004;2023-08-01T07:48:58;3.88;;;1.70;;
52564;SDS011;38460;53.106;7.004;2023-08-01T07:51:25;3.20;;;2.20;;
52564;SDS011;38460;53.106;7.004;2023-08-01T07:53:51;3.72;;;1.50;;
52564;SDS011;38460;53.106;7.004;2023-08-01T07:56:19;3.33;;;1.40;;
52564;SDS011;38460;53.106;7.004;2023-08-01T07:58:45;2.67;;;1.40;;
52564;SDS011;38460;53.106;7.004;2023-08-01T08:01:10;4.10;;;1.63;;
52564;SDS011;38460;53.106;7.004;2023-08-01T08:03:36;4.78;;;2.00;;
52564;SDS011;38460;53.106;7.004;2023-08-01T08:06:02;2.60;;;1.10;;
52564;SDS011;38460;53.106;7.004;2023-08-01T08:08:29;3.80;;;1.30;;
52564;SDS011;38460;53.106;7.004;2023-08-01T08:10:55;4.00;;;1.48;;
52564;SDS011;38460;53.106;7.004;2023-08-01T08:13:21;5.30;;;1.60;;
52564;SDS011;38460;53.106;7.004;2023-08-01T08:15:47;4.00;;;1.80;;
52564;SDS011;38460;53.106;7.004;2023-08-01T08:18:13;2.95;;;1.27;;
52564;SDS011;38460;53.106;7.004;2023-08-01T08:20:42;7.85;;;1.50;;
52564;SDS011;38460;53.106;7.004;2023-08-01T08:23:09;3.05;;;1.65;;
52564;SDS011;38460;53.106;7.004;2023-08-01T08:25:36;3.00;;;1.38;;
52564;SDS011;38460;53.106;7.004;2023-08-01T08:28:02;3.40;;;1.45;;
52564;SDS011;38460;53.106;7.004;2023-08-01T08:30:28;3.92;;;1.75;;
52564;SDS011;38460;53.106;7.004;2023-08-01T08:32:54;2.65;;;1.17;;
52564;SDS011;38460;53.106;7.004;2023-08-01T08:35:19;4.25;;;1.65;;
52564;SDS011;38460;53.106;7.004;2023-08-01T08:37:45;2.70;;;1.77;;
52564;SDS011;38460;53.106;7.004;2023-08-01T08:40:12;3.45;;;1.42;;
52564;SDS011;38460;53.106;7.004;2023-08-01T08:42:38;4.80;;;1.67;;
52564;SDS011;38460;53.106;7.004;2023-08-01T08:45:05;7.13;;;1.63;;
52564;SDS011;38460;53.106;7.004;2023-08-01T08:47:34;3.85;;;1.30;;
52564;SDS011;38460;53.106;7.004;2023-08-01T08:50:02;4.30;;;1.40;;
52564;SDS011;38460;53.106;7.004;2023-08-01T08:52:28;5.75;;;1.70;;
52564;SDS011;38460;53.106;7.004;2023-08-01T08:54:55;7.28;;;1.70;;
52564;SDS011;38460;53.106;7.004;2023-08-01T08:57:21;4.25;;;1.40;;
52564;SDS011;38460;53.106;7.004;2023-08-01T08:59:48;4.65;;;1.60;;
52564;SDS011;38460;53.106;7.004;2023-08-01T09:02:15;2.50;;;1.20;;
52564;SDS011;38460;53.106;7.004;2023-08-01T09:04:44;3.47;;;1.65;;
52564;SDS011;38460;53.106;7.004;2023-08-01T09:07:10;2.97;;;1.45;;
52564;SDS011;38460;53.106;7.004;2023-08-01T09:09:38;2.60;;;1.13;;
52564;SDS011;38460;53.106;7.004;2023-08-01T09:12:04;4.25;;;1.63;;
52564;SDS011;38460;53.106;7.004;2023-08-01T09:14:30;3.33;;;1.20;;
52564;SDS011;38460;53.106;7.004;2023-08-01T09:17:05;2.47;;;1.13;;
52564;SDS011;38460;53.106;7.004;2023-08-01T09:19:32;3.22;;;1.40;;
52564;SDS011;38460;53.106;7.004;2023-08-01T09:21:58;3.30;;;1.17;;
52564;SDS011;38460;53.106;7.004;2023-08-01T09:24:24;2.90;;;1.25;;
52564;SDS011;38460;53.106;7.004;2023-08-01T09:26:49;2.92;;;1.85;;
52564;SDS011;38460;53.106;7.004;2023-08-01T09:29:16;4.28;;;1.30;;
52564;SDS011;38460;53.106;7.004;2023-08-01T09:31:42;3.78;;;1.42;;
52564;SDS011;38460;53.106;7.004;2023-08-01T09:34:18;3.45;;;1.35;;
52564;SDS011;38460;53.106;7.004;2023-08-01T09:36:45;4.38;;;1.70;;
52564;SDS011;38460;53.106;7.004;2023-08-01T09:39:15;6.03;;;1.70;;
52564;SDS011;38460;53.106;7.004;2023-08-01T09:41:42;4.63;;;1.50;;
52564;SDS011;38460;53.106;7.004;2023-08-01T09:44:15;4.00;;;1.70;;
52564;SDS011;38460;53.106;7.004;2023-08-01T09:46:41;5.10;;;1.50;;
52564;SDS011;38460;53.106;7.004;2023-08-01T09:49:12;3.67;;;1.90;;
52564;SDS011;38460;53.106;7.004;2023-08-01T09:51:48;2.70;;;1.30;;
52564;SDS011;38460;53.106;7.004;2023-08-01T09:54:15;4.53;;;1.55;;
52564;SDS011;38460;53.106;7.004;2023-08-01T09:56:44;3.80;;;1.50;;
52564;SDS011;38460;53.106;7.004;2023-08-01T09:59:10;2.33;;;1.30;;
52564;SDS011;38460;53.106;7.004;2023-08-01T10:01:38;3.28;;;1.77;;
52564;SDS011;38460;53.106;7.004;2023-08-01T10:04:05;4.43;;;1.35;;
52564;SDS011;38460;53.106;7.004;2023-08-01T10:06:33;3.00;;;1.52;;
52564;SDS011;38460;53.106;7.004;2023-08-01T10:09:02;3.50;;;1.90;;
52564;SDS011;38460;53.106;7.004;2023-08-01T10:11:33;4.13;;;1.17;;
52564;SDS011;38460;53.106;7.004;2023-08-01T10:13:59;2.17;;;1.27;;
52564;SDS011;38460;53.106;7.004;2023-08-01T10:16:27;3.65;;;1.10;;
52564;SDS011;38460;53.106;7.004;2023-08-01T10:18:54;3.28;;;1.30;;
52564;SDS011;38460;53.106;7.004;2023-08-01T10:21:21;2.08;;;1.30;;
52564;SDS011;38460;53.106;7.004;2023-08-01T10:23:48;1.98;;;1.30;;
52564;SDS011;38460;53.106;7.004;2023-08-01T10:26:14;4.82;;;1.52;;
52564;SDS011;38460;53.106;7.004;2023-08-01T10:28:48;7.05;;;1.88;;
52564;SDS011;38460;53.106;7.004;2023-08-01T10:31:16;4.80;;;1.50;;
52564;SDS011;38460;53.106;7.004;2023-08-01T10:33:47;2.88;;;1.10;;
52564;SDS011;38460;53.106;7.004;2023-08-01T10:36:17;3.53;;;1.60;;
52564;SDS011;38460;53.106;7.004;2023-08-01T10:38:55;3.45;;;1.30;;
52564;SDS011;38460;53.106;7.004;2023-08-01T10:43:52;4.90;;;1.85;;
52564;SDS011;38460;53.106;7.004;2023-08-01T10:46:48;12.60;;;8.57;;
52564;SDS011;38460;53.106;7.004;2023-08-01T10:49:19;12.63;;;7.75;;
52564;SDS011;38460;53.106;7.004;2023-08-01T10:51:49;5.43;;;4.32;;
52564;SDS011;38460;53.106;7.004;2023-08-01T10:54:21;4.82;;;3.22;;
52564;SDS011;38460;53.106;7.004;2023-08-01T10:56:48;6.80;;;2.20;;
52564;SDS011;38460;53.106;7.004;2023-08-01T10:59:15;5.43;;;1.73;;
52564;SDS011;38460;53.106;7.004;2023-08-01T11:01:43;5.05;;;2.55;;
52564;SDS011;38460;53.106;7.004;2023-08-01T11:04:16;3.10;;;1.50;;
52564;SDS011;38460;53.106;7.004;2023-08-01T11:06:46;4.32;;;1.83;;
52564;SDS011;38460;53.106;7.004;2023-08-01T11:09:23;3.35;;;1.90;;
52564;SDS011;38460;53.106;7.004;2023-08-01T11:11:51;4.07;;;2.00;;
52564;SDS011;38460;53.106;7.004;2023-08-01T11:14:19;5.57;;;2.88;;
52564;SDS011;38460;53.106;7.004;2023-08-01T11:16:47;8.32;;;2.85;;
52564;SDS011;38460;53.106;7.004;2023-08-01T11:19:32;4.60;;;2.30;;
52564;SDS011;38460;53.106;7.004;2023-08-01T11:21:58;4.75;;;2.72;;
52564;SDS011;38460;53.106;7.004;2023-08-01T11:24:33;4.10;;;2.67;;
52564;SDS011;38460;53.106;7.004;2023-08-01T11:26:59;4.60;;;2.95;;
52564;SDS011;38460;53.106;7.004;2023-08-01T11:29:24;7.88;;;3.00;;
52564;SDS011;38460;53.106;7.004;2023-08-01T11:31:57;5.32;;;2.40;;
52564;SDS011;38460;53.106;7.004;2023-08-01T11:34:24;7.28;;;2.63;;
52564;SDS011;38460;53.106;7.004;2023-08-01T11:36:50;6.07;;;2.60;;
52564;SDS011;38460;53.106;7.004;2023-08-01T11:39:17;4.60;;;1.80;;
52564;SDS011;38460;53.106;7.004;2023-08-01T11:41:43;4.22;;;1.80;;
52564;SDS011;38460;53.106;7.004;2023-08-01T11:44:09;3.78;;;1.90;;
52564;SDS011;38460;53.106;7.004;2023-08-01T11:46:37;5.70;;;2.78;;
52564;SDS011;38460;53.106;7.004;2023-08-01T11:49:04;5.80;;;2.20;;
52564;SDS011;38460;53.106;7.004;2023-08-01T11:51:39;5.07;;;2.17;;
52564;SDS011;38460;53.106;7.004;2023-08-01T11:54:06;3.78;;;1.80;;
52564;SDS011;38460;53.106;7.004;2023-08-01T11:56:33;3.92;;;2.13;;
52564;SDS011;38460;53.106;7.004;2023-08-01T11:58:59;4.28;;;1.77;;
52564;SDS011;38460;53.106;7.004;2023-08-01T12:01:32;6.40;;;2.40;;
52564;SDS011;38460;53.106;7.004;2023-08-01T12:04:03;5.25;;;2.47;;
52564;SDS011;38460;53.106;7.004;2023-08-01T12:06:30;6.75;;;1.77;;
52564;SDS011;38460;53.106;7.004;2023-08-01T12:09:05;3.40;;;1.65;;
52564;SDS011;38460;53.106;7.004;2023-08-01T12:11:36;6.93;;;1.88;;
52564;SDS011;38460;53.106;7.004;2023-08-01T12:16:29;6.13;;;1.90;;
52564;SDS011;38460;53.106;7.004;2023-08-01T12:18:56;3.78;;;1.52;;
52564;SDS011;38460;53.106;7.004;2023-08-01T12:21:22;4.88;;;1.73;;
52564;SDS011;38460;53.106;7.004;2023-08-01T12:23:48;5.25;;;1.75;;
52564;SDS011;38460;53.106;7.004;2023-08-01T12:26:13;7.10;;;2.50;;
52564;SDS011;38460;53.106;7.004;2023-08-01T12:28:39;4.53;;;1.35;;
52564;SDS011;38460;53.106;7.004;2023-08-01T12:31:05;4.72;;;1.70;;
52564;SDS011;38460;53.106;7.004;2023-08-01T12:33:32;4.20;;;2.08;;
52564;SDS011;38460;53.106;7.004;2023-08-01T12:35:58;5.53;;;1.45;;
52564;SDS011;38460;53.106;7.004;2023-08-01T12:38:25;7.13;;;1.58;;
52564;SDS011;38460;53.106;7.004;2023-08-01T12:40:51;4.60;;;2.30;;
52564;SDS011;38460;53.106;7.004;2023-08-01T12:43:16;2.95;;;2.60;;
52564;SDS011;38460;53.106;7.004;2023-08-01T12:45:42;5.32;;;1.52;;
52564;SDS011;38460;53.106;7.004;2023-08-01T12:48:08;3.72;;;1.17;;
52564;SDS011;38460;53.106;7.004;2023-08-01T12:50:34;5.38;;;1.10;;
52564;SDS011;38460;53.106;7.004;2023-08-01T12:53:00;3.58;;;1.45;;
52564;SDS011;38460;53.106;7.004;2023-08-01T12:55:25;5.88;;;1.85;;
52564;SDS011;38460;53.106;7.004;2023-08-01T12:57:51;5.47;;;1.85;;
52564;SDS011;38460;53.106;7.004;2023-08-01T13:00:17;6.72;;;2.22;;
52564;SDS011;38460;53.106;7.004;2023-08-01T13:02:43;4.13;;;1.65;;
52564;SDS011;38460;53.106;7.004;2023-08-01T13:05:09;4.63;;;1.70;;
52564;SDS011;38460;53.106;7.004;2023-08-01T13:07:35;5.35;;;1.80;;
52564;SDS011;38460;53.106;7.004;2023-08-01T13:10:01;5.10;;;1.98;;
52564;SDS011;38460;53.106;7.004;2023-08-01T13:12:27;4.30;;;1.65;;
52564;SDS011;38460;53.106;7.004;2023-08-01T13:14:52;3.88;;;1.63;;
52564;SDS011;38460;53.106;7.004;2023-08-01T13:17:18;4.72;;;2.03;;
52564;SDS011;38460;53.106;7.004;2023-08-01T13:19:44;3.97;;;1.90;;
52564;SDS011;38460;53.106;7.004;2023-08-01T13:22:10;4.13;;;1.85;;
52564;SDS011;38460;53.106;7.004;2023-08-01T13:24:35;3.53;;;1.83;;
52564;SDS011;38460;53.106;7.004;2023-08-01T13:27:01;4.50;;;1.95;;
52564;SDS011;38460;53.106;7.004;2023-08-01T13:29:27;5.60;;;2.10;;
52564;SDS011;38460;53.106;7.004;2023-08-01T13:31:53;4.13;;;2.00;;
52564;SDS011;38460;53.106;7.004;2023-08-01T13:34:19;6.63;;;1.83;;
52564;SDS011;38460;53.106;7.004;2023-08-01T13:36:44;4.75;;;1.77;;
52564;SDS011;38460;53.106;7.004;2023-08-01T13:39:10;4.90;;;1.42;;
52564;SDS011;38460;53.106;7.004;2023-08-01T13:41:36;4.07;;;1.65;;
52564;SDS011;38460;53.106;7.004;2023-08-01T13:44:02;5.78;;;1.67;;
52564;SDS011;38460;53.106;7.004;2023-08-01T13:46:27;3.53;;;1.17;;
52564;SDS011;38460;53.106;7.004;2023-08-01T13:48:53;4.20;;;2.15;;
52564;SDS011;38460;53.106;7.004;2023-08-01T13:51:19;2.92;;;1.45;;
52564;SDS011;38460;53.106;7.004;2023-08-01T13:53:45;3.40;;;1.35;;
52564;SDS011;38460;53.106;7.004;2023-08-01T13:56:11;4.85;;;1.70;;
52564;SDS011;38460;53.106;7.004;2023-08-01T13:58:37;5.18;;;1.50;;
52564;SDS011;38460;53.106;7.004;2023-08-01T14:01:07;3.55;;;1.48;;
52564;SDS011;38460;53.106;7.004;2023-08-01T14:03:37;4.68;;;2.20;;
52564;SDS011;38460;53.106;7.004;2023-08-01T14:06:05;6.05;;;1.67;;
52564;SDS011;38460;53.106;7.004;2023-08-01T14:08:35;5.83;;;1.73;;
52564;SDS011;38460;53.106;7.004;2023-08-01T14:11:04;5.32;;;1.60;;
52564;SDS011;38460;53.106;7.004;2023-08-01T14:13:31;3.78;;;1.40;;
52564;SDS011;38460;53.106;7.004;2023-08-01T14:15:57;4.50;;;1.30;;
52564;SDS011;38460;53.106;7.004;2023-08-01T14:18:23;2.83;;;1.30;;
52564;SDS011;38460;53.106;7.004;2023-08-01T14:20:48;2.17;;;1.40;;
52564;SDS011;38460;53.106;7.004;2023-08-01T14:23:14;3.88;;;1.30;;
52564;SDS011;38460;53.106;7.004;2023-08-01T14:25:40;7.32;;;1.65;;
52564;SDS011;38460;53.106;7.004;2023-08-01T14:28:06;2.70;;;1.42;;
52564;SDS011;38460;53.106;7.004;2023-08-01T14:30:32;4.60;;;1.33;;
52564;SDS011;38460;53.106;7.004;2023-08-01T14:33:01;4.85;;;1.50;;
52564;SDS011;38460;53.106;7.004;2023-08-01T14:35:31;3.13;;;1.80;;
52564;SDS011;38460;53.106;7.004;2023-08-01T14:37:58;3.05;;;1.17;;
52564;SDS011;38460;53.106;7.004;2023-08-01T14:40:24;3.63;;;1.10;;
52564;SDS011;38460;53.106;7.004;2023-08-01T14:42:50;2.60;;;1.08;;
52564;SDS011;38460;53.106;7.004;2023-08-01T14:45:17;4.38;;;1.20;;
52564;SDS011;38460;53.106;7.004;2023-08-01T14:47:43;1.98;;;1.08;;
52564;SDS011;38460;53.106;7.004;2023-08-01T14:50:12;2.60;;;1.10;;